sensor_id;sensor_type;location;lat;lon;timestamp;P1;durP1;ratioP1;P2;durP2;ratioP2
28653;SDS011;24320;56.980;24.336;2022-07-06T00:00:06;9.52;;;3.40;;
28653;SDS011;24320;56.980;24.336;2022-07-06T00:02:34;5.15;;;2.90;;
28653;SDS011;24320;56.980;24.336;2022-07-06T00:05:01;7.88;;;3.28;;
28653;SDS011;24320;56.980;24.336;2022-07-06T00:07:28;4.55;;;3.30;;
28653;SDS011;24320;56.980;24.336;2022-07-06T00:09:55;7.60;;;3.45;;
28653;SDS011;24320;56.980;24.336;2022-07-06T00:12:22;5.57;;;3.22;;
28653;SDS011;24320;56.980;24.336;2022-07-06T00:14:49;8.85;;;3.65;;
28653;SDS011;24320;56.980;24.336;2022-07-06T00:17:16;6.65;;;3.20;;
28653;SDS011;24320;56.980;24.336;2022-07-06T00:19:43;6.30;;;3.47;;
28653;SDS011;24320;56.980;24.336;2022-07-06T00:22:10;9.57;;;3.70;;
28653;SDS011;24320;56.980;24.336;2022-07-06T00:24:37;31.20;;;10.50;;
28653;SDS011;24320;56.980;24.336;2022-07-06T00:27:04;87.28;;;27.52;;
28653;SDS011;24320;56.980;24.336;2022-07-06T00:29:31;186.18;;;53.15;;
28653;SDS011;24320;56.980;24.336;2022-07-06T00:31:58;399.92;;;134.90;;
28653;SDS011;24320;56.980;24.336;2022-07-06T00:34:25;449.55;;;156.27;;
28653;SDS011;24320;56.980;24.336;2022-07-06T00:36:52;262.48;;;89.97;;
28653;SDS011;24320;56.980;24.336;2022-07-06T00:39:19;128.10;;;46.15;;
28653;SDS011;24320;56.980;24.336;2022-07-06T00:41:48;94.53;;;35.10;;
28653;SDS011;24320;56.980;24.336;2022-07-06T00:44:15;44.05;;;17.27;;
28653;SDS011;24320;56.980;24.336;2022-07-06T00:46:42;19.38;;;8.20;;
28653;SDS011;24320;56.980;24.336;2022-07-06T00:49:09;15.15;;;5.95;;
28653;SDS011;24320;56.980;24.336;2022-07-06T00:51:56;13.43;;;5.63;;
28653;SDS011;24320;56.980;24.336;2022-07-06T00:54:24;12.80;;;5.60;;
28653;SDS011;24320;56.980;24.336;2022-07-06T00:56:52;9.40;;;5.70;;
28653;SDS011;24320;56.980;24.336;2022-07-06T00:59:20;10.07;;;4.65;;
28653;SDS011;24320;56.980;24.336;2022-07-06T01:01:48;5.50;;;3.95;;
28653;SDS011;24320;56.980;24.336;2022-07-06T01:04:15;8.07;;;4.10;;
28653;SDS011;24320;56.980;24.336;2022-07-06T01:06:42;6.32;;;3.17;;
28653;SDS011;24320;56.980;24.336;2022-07-06T01:09:12;6.50;;;3.58;;
28653;SDS011;24320;56.980;24.336;2022-07-06T01:11:39;6.28;;;3.58;;
28653;SDS011;24320;56.980;24.336;2022-07-06T01:14:06;5.53;;;3.60;;
28653;SDS011;24320;56.980;24.336;2022-07-06T01:16:34;6.10;;;3.88;;
28653;SDS011;24320;56.980;24.336;2022-07-06T01:19:01;8.88;;;4.40;;
28653;SDS011;24320;56.980;24.336;2022-07-06T01:21:28;7.63;;;3.33;;
28653;SDS011;24320;56.980;24.336;2022-07-06T01:23:55;11.95;;;3.70;;
28653;SDS011;24320;56.980;24.336;2022-07-06T01:26:22;6.82;;;3.85;;
28653;SDS011;24320;56.980;24.336;2022-07-06T01:28:50;8.20;;;3.92;;
28653;SDS011;24320;56.980;24.336;2022-07-06T01:31:19;6.43;;;3.65;;
28653;SDS011;24320;56.980;24.336;2022-07-06T01:33:52;10.88;;;4.50;;
28653;SDS011;24320;56.980;24.336;2022-07-06T01:36:21;6.47;;;4.10;;
28653;SDS011;24320;56.980;24.336;2022-07-06T01:41:20;9.10;;;4.00;;
28653;SDS011;24320;56.980;24.336;2022-07-06T01:43:47;7.38;;;3.97;;
28653;SDS011;24320;56.980;24.336;2022-07-06T01:46:14;5.63;;;3.83;;
28653;SDS011;24320;56.980;24.336;2022-07-06T01:48:42;8.43;;;4.03;;
28653;SDS011;24320;56.980;24.336;2022-07-06T01:51:09;9.18;;;4.20;;
28653;SDS011;24320;56.980;24.336;2022-07-06T01:53:38;6.55;;;3.83;;
28653;SDS011;24320;56.980;24.336;2022-07-06T01:56:05;8.43;;;3.47;;
28653;SDS011;24320;56.980;24.336;2022-07-06T01:58:32;7.28;;;4.13;;
28653;SDS011;24320;56.980;24.336;2022-07-06T02:00:59;5.90;;;3.85;;
28653;SDS011;24320;56.980;24.336;2022-07-06T02:03:27;11.32;;;4.43;;
28653;SDS011;24320;56.980;24.336;2022-07-06T02:05:54;5.05;;;3.75;;
28653;SDS011;24320;56.980;24.336;2022-07-06T02:08:21;9.30;;;4.35;;
28653;SDS011;24320;56.980;24.336;2022-07-06T02:10:48;8.60;;;3.95;;
28653;SDS011;24320;56.980;24.336;2022-07-06T02:13:15;6.55;;;4.35;;
28653;SDS011;24320;56.980;24.336;2022-07-06T02:15:42;8.45;;;3.80;;
28653;SDS011;24320;56.980;24.336;2022-07-06T02:18:09;6.05;;;3.72;;
28653;SDS011;24320;56.980;24.336;2022-07-06T02:20:36;5.00;;;3.80;;
28653;SDS011;24320;56.980;24.336;2022-07-06T02:23:03;6.22;;;3.55;;
28653;SDS011;24320;56.980;24.336;2022-07-06T02:25:30;4.97;;;3.60;;
28653;SDS011;24320;56.980;24.336;2022-07-06T02:27:57;8.65;;;3.80;;
28653;SDS011;24320;56.980;24.336;2022-07-06T02:30:24;7.80;;;3.63;;
28653;SDS011;24320;56.980;24.336;2022-07-06T02:32:51;7.07;;;3.70;;
28653;SDS011;24320;56.980;24.336;2022-07-06T02:35:18;4.70;;;3.53;;
28653;SDS011;24320;56.980;24.336;2022-07-06T02:37:45;5.85;;;3.72;;
28653;SDS011;24320;56.980;24.336;2022-07-06T02:40:12;5.32;;;3.90;;
28653;SDS011;24320;56.980;24.336;2022-07-06T02:42:39;4.82;;;3.70;;
28653;SDS011;24320;56.980;24.336;2022-07-06T02:45:07;5.75;;;3.58;;
28653;SDS011;24320;56.980;24.336;2022-07-06T02:47:34;6.90;;;3.63;;
28653;SDS011;24320;56.980;24.336;2022-07-06T02:50:02;5.63;;;3.60;;
28653;SDS011;24320;56.980;24.336;2022-07-06T02:52:29;7.60;;;3.75;;
28653;SDS011;24320;56.980;24.336;2022-07-06T02:55:00;5.65;;;3.75;;
28653;SDS011;24320;56.980;24.336;2022-07-06T02:57:27;10.82;;;3.78;;
28653;SDS011;24320;56.980;24.336;2022-07-06T02:59:54;9.27;;;3.50;;
28653;SDS011;24320;56.980;24.336;2022-07-06T03:02:21;7.07;;;3.38;;
28653;SDS011;24320;56.980;24.336;2022-07-06T03:04:49;6.10;;;3.13;;
28653;SDS011;24320;56.980;24.336;2022-07-06T03:07:16;4.80;;;3.13;;
28653;SDS011;24320;56.980;24.336;2022-07-06T03:09:43;4.70;;;3.00;;
28653;SDS011;24320;56.980;24.336;2022-07-06T03:12:10;4.45;;;2.50;;
28653;SDS011;24320;56.980;24.336;2022-07-06T03:14:37;3.92;;;2.20;;
28653;SDS011;24320;56.980;24.336;2022-07-06T03:17:04;6.97;;;2.30;;
28653;SDS011;24320;56.980;24.336;2022-07-06T03:19:31;3.78;;;2.40;;
28653;SDS011;24320;56.980;24.336;2022-07-06T03:21:58;7.80;;;2.45;;
28653;SDS011;24320;56.980;24.336;2022-07-06T03:24:25;5.15;;;2.65;;
28653;SDS011;24320;56.980;24.336;2022-07-06T03:26:52;4.28;;;2.58;;
28653;SDS011;24320;56.980;24.336;2022-07-06T03:29:19;8.32;;;2.40;;
28653;SDS011;24320;56.980;24.336;2022-07-06T03:31:48;8.05;;;2.30;;
28653;SDS011;24320;56.980;24.336;2022-07-06T03:34:15;6.60;;;2.63;;
28653;SDS011;24320;56.980;24.336;2022-07-06T03:36:42;6.97;;;2.65;;
28653;SDS011;24320;56.980;24.336;2022-07-06T03:39:09;4.60;;;2.63;;
28653;SDS011;24320;56.980;24.336;2022-07-06T03:41:36;6.00;;;2.42;;
28653;SDS011;24320;56.980;24.336;2022-07-06T03:44:03;8.98;;;2.40;;
28653;SDS011;24320;56.980;24.336;2022-07-06T03:46:30;6.82;;;2.65;;
28653;SDS011;24320;56.980;24.336;2022-07-06T03:48:57;6.03;;;2.47;;
28653;SDS011;24320;56.980;24.336;2022-07-06T03:51:24;5.82;;;2.47;;
28653;SDS011;24320;56.980;24.336;2022-07-06T03:53:51;3.88;;;2.28;;
28653;SDS011;24320;56.980;24.336;2022-07-06T03:56:18;2.85;;;1.98;;
28653;SDS011;24320;56.980;24.336;2022-07-06T03:59:00;9.00;;;2.58;;
28653;SDS011;24320;56.980;24.336;2022-07-06T04:01:28;6.45;;;2.45;;
28653;SDS011;24320;56.980;24.336;2022-07-06T04:03:56;5.80;;;2.30;;
28653;SDS011;24320;56.980;24.336;2022-07-06T04:06:23;3.53;;;2.50;;
28653;SDS011;24320;56.980;24.336;2022-07-06T04:08:51;6.70;;;2.60;;
28653;SDS011;24320;56.980;24.336;2022-07-06T04:11:18;4.18;;;2.72;;
28653;SDS011;24320;56.980;24.336;2022-07-06T04:13:45;3.50;;;2.60;;
28653;SDS011;24320;56.980;24.336;2022-07-06T04:16:12;2.65;;;2.10;;
28653;SDS011;24320;56.980;24.336;2022-07-06T04:18:39;5.25;;;2.63;;
28653;SDS011;24320;56.980;24.336;2022-07-06T04:21:07;5.00;;;2.40;;
28653;SDS011;24320;56.980;24.336;2022-07-06T04:23:34;6.13;;;3.17;;
28653;SDS011;24320;56.980;24.336;2022-07-06T04:26:01;4.93;;;2.90;;
28653;SDS011;24320;56.980;24.336;2022-07-06T04:28:28;4.38;;;2.50;;
28653;SDS011;24320;56.980;24.336;2022-07-06T04:30:55;4.25;;;2.50;;
28653;SDS011;24320;56.980;24.336;2022-07-06T04:33:22;5.15;;;2.55;;
28653;SDS011;24320;56.980;24.336;2022-07-06T04:35:49;5.53;;;2.90;;
28653;SDS011;24320;56.980;24.336;2022-07-06T04:38:16;10.35;;;2.85;;
28653;SDS011;24320;56.980;24.336;2022-07-06T04:40:43;12.82;;;3.05;;
28653;SDS011;24320;56.980;24.336;2022-07-06T04:43:12;4.72;;;2.58;;
28653;SDS011;24320;56.980;24.336;2022-07-06T04:45:40;4.63;;;2.40;;
28653;SDS011;24320;56.980;24.336;2022-07-06T04:48:07;6.95;;;2.28;;
28653;SDS011;24320;56.980;24.336;2022-07-06T04:50:34;12.60;;;2.63;;
28653;SDS011;24320;56.980;24.336;2022-07-06T04:55:32;4.88;;;2.60;;
28653;SDS011;24320;56.980;24.336;2022-07-06T04:57:59;4.13;;;2.60;;
28653;SDS011;24320;56.980;24.336;2022-07-06T05:00:26;5.65;;;2.17;;
28653;SDS011;24320;56.980;24.336;2022-07-06T05:02:54;4.35;;;2.53;;
28653;SDS011;24320;56.980;24.336;2022-07-06T05:05:21;4.63;;;2.60;;
28653;SDS011;24320;56.980;24.336;2022-07-06T05:07:48;2.83;;;2.13;;
28653;SDS011;24320;56.980;24.336;2022-07-06T05:10:15;6.43;;;2.17;;
28653;SDS011;24320;56.980;24.336;2022-07-06T05:12:42;4.25;;;2.53;;
28653;SDS011;24320;56.980;24.336;2022-07-06T05:15:10;3.38;;;2.10;;
28653;SDS011;24320;56.980;24.336;2022-07-06T05:17:37;4.03;;;2.20;;
28653;SDS011;24320;56.980;24.336;2022-07-06T05:20:04;6.15;;;2.22;;
28653;SDS011;24320;56.980;24.336;2022-07-06T05:22:32;3.72;;;2.00;;
28653;SDS011;24320;56.980;24.336;2022-07-06T05:24:59;3.65;;;2.20;;
28653;SDS011;24320;56.980;24.336;2022-07-06T05:27:26;5.63;;;2.50;;
28653;SDS011;24320;56.980;24.336;2022-07-06T05:29:53;5.63;;;1.83;;
28653;SDS011;24320;56.980;24.336;2022-07-06T05:32:20;8.43;;;2.22;;
28653;SDS011;24320;56.980;24.336;2022-07-06T05:34:47;3.25;;;2.08;;
28653;SDS011;24320;56.980;24.336;2022-07-06T05:37:16;4.18;;;2.00;;
28653;SDS011;24320;56.980;24.336;2022-07-06T05:39:43;5.38;;;2.30;;
28653;SDS011;24320;56.980;24.336;2022-07-06T05:42:16;4.03;;;2.05;;
28653;SDS011;24320;56.980;24.336;2022-07-06T05:44:43;4.90;;;2.30;;
28653;SDS011;24320;56.980;24.336;2022-07-06T05:47:10;4.82;;;2.13;;
28653;SDS011;24320;56.980;24.336;2022-07-06T05:49:55;5.30;;;2.28;;
28653;SDS011;24320;56.980;24.336;2022-07-06T05:52:41;2.92;;;2.10;;
28653;SDS011;24320;56.980;24.336;2022-07-06T05:55:09;4.63;;;2.17;;
28653;SDS011;24320;56.980;24.336;2022-07-06T05:57:38;4.10;;;1.70;;
28653;SDS011;24320;56.980;24.336;2022-07-06T06:00:06;5.05;;;2.10;;
28653;SDS011;24320;56.980;24.336;2022-07-06T06:02:38;3.35;;;1.90;;
28653;SDS011;24320;56.980;24.336;2022-07-06T06:05:06;6.70;;;2.00;;
28653;SDS011;24320;56.980;24.336;2022-07-06T06:07:35;4.45;;;2.30;;
28653;SDS011;24320;56.980;24.336;2022-07-06T06:10:04;5.40;;;2.03;;
28653;SDS011;24320;56.980;24.336;2022-07-06T06:12:33;5.37;;;2.00;;
28653;SDS011;24320;56.980;24.336;2022-07-06T06:15:00;6.32;;;2.20;;
28653;SDS011;24320;56.980;24.336;2022-07-06T06:17:28;6.68;;;1.70;;
28653;SDS011;24320;56.980;24.336;2022-07-06T06:19:55;4.65;;;1.63;;
28653;SDS011;24320;56.980;24.336;2022-07-06T06:22:22;7.68;;;2.00;;
28653;SDS011;24320;56.980;24.336;2022-07-06T06:24:49;4.28;;;2.13;;
28653;SDS011;24320;56.980;24.336;2022-07-06T06:27:16;5.45;;;2.08;;
28653;SDS011;24320;56.980;24.336;2022-07-06T06:29:43;4.43;;;1.70;;
28653;SDS011;24320;56.980;24.336;2022-07-06T06:32:11;3.05;;;1.85;;
28653;SDS011;24320;56.980;24.336;2022-07-06T06:34:39;3.42;;;1.60;;
28653;SDS011;24320;56.980;24.336;2022-07-06T06:37:06;4.97;;;1.83;;
28653;SDS011;24320;56.980;24.336;2022-07-06T06:39:33;5.85;;;2.00;;
28653;SDS011;24320;56.980;24.336;2022-07-06T06:42:00;3.00;;;1.65;;
28653;SDS011;24320;56.980;24.336;2022-07-06T06:44:27;4.28;;;1.73;;
28653;SDS011;24320;56.980;24.336;2022-07-06T06:46:54;5.35;;;1.95;;
28653;SDS011;24320;56.980;24.336;2022-07-06T06:49:21;4.97;;;1.75;;
28653;SDS011;24320;56.980;24.336;2022-07-06T06:51:51;4.68;;;1.50;;
28653;SDS011;24320;56.980;24.336;2022-07-06T06:54:38;2.72;;;1.60;;
28653;SDS011;24320;56.980;24.336;2022-07-06T06:57:05;4.93;;;1.83;;
28653;SDS011;24320;56.980;24.336;2022-07-06T06:59:32;5.60;;;1.63;;
28653;SDS011;24320;56.980;24.336;2022-07-06T07:01:59;3.83;;;1.58;;
28653;SDS011;24320;56.980;24.336;2022-07-06T07:04:26;5.28;;;1.90;;
28653;SDS011;24320;56.980;24.336;2022-07-06T07:06:55;3.83;;;1.90;;
28653;SDS011;24320;56.980;24.336;2022-07-06T07:09:23;5.50;;;2.05;;
28653;SDS011;24320;56.980;24.336;2022-07-06T07:11:50;3.60;;;1.67;;
28653;SDS011;24320;56.980;24.336;2022-07-06T07:14:17;6.15;;;1.52;;
28653;SDS011;24320;56.980;24.336;2022-07-06T07:16:44;3.33;;;1.23;;
28653;SDS011;24320;56.980;24.336;2022-07-06T07:19:11;6.63;;;1.92;;
28653;SDS011;24320;56.980;24.336;2022-07-06T07:21:38;2.75;;;1.63;;
28653;SDS011;24320;56.980;24.336;2022-07-06T07:24:05;2.78;;;2.20;;
28653;SDS011;24320;56.980;24.336;2022-07-06T07:26:36;4.60;;;1.65;;
28653;SDS011;24320;56.980;24.336;2022-07-06T07:29:03;4.45;;;1.35;;
28653;SDS011;24320;56.980;24.336;2022-07-06T07:31:30;5.45;;;1.80;;
28653;SDS011;24320;56.980;24.336;2022-07-06T07:33:57;2.85;;;1.63;;
28653;SDS011;24320;56.980;24.336;2022-07-06T07:36:25;2.70;;;1.63;;
28653;SDS011;24320;56.980;24.336;2022-07-06T07:38:52;2.60;;;1.52;;
28653;SDS011;24320;56.980;24.336;2022-07-06T07:41:20;1.98;;;1.40;;
28653;SDS011;24320;56.980;24.336;2022-07-06T07:43:49;3.92;;;1.45;;
28653;SDS011;24320;56.980;24.336;2022-07-06T07:46:16;4.60;;;1.80;;
28653;SDS011;24320;56.980;24.336;2022-07-06T07:48:43;3.38;;;1.52;;
28653;SDS011;24320;56.980;24.336;2022-07-06T07:51:10;3.30;;;1.25;;
28653;SDS011;24320;56.980;24.336;2022-07-06T07:53:37;7.45;;;1.83;;
28653;SDS011;24320;56.980;24.336;2022-07-06T07:56:04;3.28;;;1.40;;
28653;SDS011;24320;56.980;24.336;2022-07-06T07:58:32;2.17;;;1.45;;
28653;SDS011;24320;56.980;24.336;2022-07-06T08:00:59;2.92;;;1.70;;
28653;SDS011;24320;56.980;24.336;2022-07-06T08:03:26;3.90;;;1.50;;
28653;SDS011;24320;56.980;24.336;2022-07-06T08:05:53;5.30;;;1.45;;
28653;SDS011;24320;56.980;24.336;2022-07-06T08:08:20;2.40;;;1.55;;
28653;SDS011;24320;56.980;24.336;2022-07-06T08:10:48;4.40;;;1.65;;
28653;SDS011;24320;56.980;24.336;2022-07-06T08:13:35;2.70;;;1.45;;
28653;SDS011;24320;56.980;24.336;2022-07-06T08:16:03;4.63;;;1.48;;
28653;SDS011;24320;56.980;24.336;2022-07-06T08:18:30;2.72;;;1.55;;
28653;SDS011;24320;56.980;24.336;2022-07-06T08:20:57;2.65;;;1.60;;
28653;SDS011;24320;56.980;24.336;2022-07-06T08:23:44;6.53;;;1.95;;
28653;SDS011;24320;56.980;24.336;2022-07-06T08:26:12;2.30;;;1.45;;
28653;SDS011;24320;56.980;24.336;2022-07-06T08:28:42;2.70;;;1.50;;
28653;SDS011;24320;56.980;24.336;2022-07-06T08:31:10;4.88;;;1.60;;
28653;SDS011;24320;56.980;24.336;2022-07-06T08:33:56;3.25;;;1.50;;
28653;SDS011;24320;56.980;24.336;2022-07-06T08:36:24;3.55;;;1.30;;
28653;SDS011;24320;56.980;24.336;2022-07-06T08:38:51;4.50;;;1.42;;
28653;SDS011;24320;56.980;24.336;2022-07-06T08:41:19;2.70;;;1.55;;
28653;SDS011;24320;56.980;24.336;2022-07-06T08:43:51;4.13;;;1.38;;
28653;SDS011;24320;56.980;24.336;2022-07-06T08:46:20;5.68;;;1.50;;
28653;SDS011;24320;56.980;24.336;2022-07-06T08:48:48;3.58;;;1.48;;
28653;SDS011;24320;56.980;24.336;2022-07-06T08:51:16;2.80;;;1.60;;
28653;SDS011;24320;56.980;24.336;2022-07-06T08:53:44;4.78;;;1.63;;
28653;SDS011;24320;56.980;24.336;2022-07-06T08:56:12;3.92;;;1.50;;
28653;SDS011;24320;56.980;24.336;2022-07-06T08:58:39;4.63;;;1.55;;
28653;SDS011;24320;56.980;24.336;2022-07-06T09:01:11;5.95;;;1.70;;
28653;SDS011;24320;56.980;24.336;2022-07-06T09:03:42;2.97;;;1.35;;
28653;SDS011;24320;56.980;24.336;2022-07-06T09:06:11;3.20;;;1.63;;
28653;SDS011;24320;56.980;24.336;2022-07-06T09:08:49;3.85;;;1.50;;
28653;SDS011;24320;56.980;24.336;2022-07-06T09:11:20;1.92;;;1.40;;
28653;SDS011;24320;56.980;24.336;2022-07-06T09:13:51;5.05;;;1.33;;
28653;SDS011;24320;56.980;24.336;2022-07-06T09:16:24;4.45;;;1.63;;
28653;SDS011;24320;56.980;24.336;2022-07-06T09:19:04;4.75;;;1.30;;
28653;SDS011;24320;56.980;24.336;2022-07-06T09:21:32;3.60;;;1.60;;
28653;SDS011;24320;56.980;24.336;2022-07-06T09:24:05;3.83;;;1.60;;
28653;SDS011;24320;56.980;24.336;2022-07-06T09:26:33;3.13;;;1.38;;
28653;SDS011;24320;56.980;24.336;2022-07-06T09:29:01;4.57;;;1.40;;
28653;SDS011;24320;56.980;24.336;2022-07-06T09:31:28;4.72;;;1.42;;
28653;SDS011;24320;56.980;24.336;2022-07-06T09:33:59;3.17;;;1.33;;
28653;SDS011;24320;56.980;24.336;2022-07-06T09:36:47;4.65;;;1.40;;
28653;SDS011;24320;56.980;24.336;2022-07-06T09:39:19;3.45;;;1.30;;
28653;SDS011;24320;56.980;24.336;2022-07-06T09:41:47;4.45;;;1.38;;
28653;SDS011;24320;56.980;24.336;2022-07-06T09:44:23;3.30;;;1.25;;
28653;SDS011;24320;56.980;24.336;2022-07-06T09:46:58;5.35;;;1.60;;
28653;SDS011;24320;56.980;24.336;2022-07-06T09:49:31;3.40;;;1.20;;
28653;SDS011;24320;56.980;24.336;2022-07-06T09:51:59;3.65;;;1.42;;
28653;SDS011;24320;56.980;24.336;2022-07-06T09:54:28;3.72;;;1.30;;
28653;SDS011;24320;56.980;24.336;2022-07-06T09:56:55;3.05;;;1.30;;
28653;SDS011;24320;56.980;24.336;2022-07-06T09:59:24;4.55;;;1.42;;
28653;SDS011;24320;56.980;24.336;2022-07-06T10:01:57;5.47;;;1.42;;
28653;SDS011;24320;56.980;24.336;2022-07-06T10:04:29;4.63;;;1.48;;
28653;SDS011;24320;56.980;24.336;2022-07-06T10:06:57;4.35;;;1.40;;
28653;SDS011;24320;56.980;24.336;2022-07-06T10:09:26;3.22;;;1.45;;
28653;SDS011;24320;56.980;24.336;2022-07-06T10:11:59;4.18;;;1.48;;
28653;SDS011;24320;56.980;24.336;2022-07-06T10:14:32;3.28;;;1.50;;
28653;SDS011;24320;56.980;24.336;2022-07-06T10:17:00;3.50;;;1.30;;
28653;SDS011;24320;56.980;24.336;2022-07-06T10:19:30;4.15;;;1.40;;
28653;SDS011;24320;56.980;24.336;2022-07-06T10:22:02;1.90;;;1.40;;
28653;SDS011;24320;56.980;24.336;2022-07-06T10:24:30;4.88;;;1.38;;
28653;SDS011;24320;56.980;24.336;2022-07-06T10:27:00;2.08;;;1.27;;
28653;SDS011;24320;56.980;24.336;2022-07-06T10:29:28;2.05;;;1.30;;
28653;SDS011;24320;56.980;24.336;2022-07-06T10:31:58;4.07;;;1.67;;
28653;SDS011;24320;56.980;24.336;2022-07-06T10:34:26;5.28;;;1.08;;
28653;SDS011;24320;56.980;24.336;2022-07-06T10:36:53;5.63;;;1.35;;
28653;SDS011;24320;56.980;24.336;2022-07-06T10:39:31;5.75;;;1.45;;
28653;SDS011;24320;56.980;24.336;2022-07-06T10:42:42;1.70;;;1.02;;
28653;SDS011;24320;56.980;24.336;2022-07-06T10:45:17;6.00;;;1.23;;
28653;SDS011;24320;56.980;24.336;2022-07-06T10:48:15;3.67;;;1.40;;
28653;SDS011;24320;56.980;24.336;2022-07-06T10:50:37;2.78;;;1.13;;
28653;SDS011;24320;56.980;24.336;2022-07-06T10:53:11;1.63;;;1.30;;
28653;SDS011;24320;56.980;24.336;2022-07-06T10:55:39;1.75;;;1.05;;
28653;SDS011;24320;56.980;24.336;2022-07-06T10:58:07;3.97;;;1.20;;
28653;SDS011;24320;56.980;24.336;2022-07-06T11:00:50;2.25;;;1.00;;
28653;SDS011;24320;56.980;24.336;2022-07-06T11:06:16;2.20;;;1.10;;
28653;SDS011;24320;56.980;24.336;2022-07-06T11:11:37;3.92;;;1.20;;
28653;SDS011;24320;56.980;24.336;2022-07-06T11:14:08;3.00;;;1.35;;
28653;SDS011;24320;56.980;24.336;2022-07-06T11:19:15;5.97;;;2.80;;
28653;SDS011;24320;56.980;24.336;2022-07-06T11:21:49;2.75;;;1.45;;
28653;SDS011;24320;56.980;24.336;2022-07-06T11:26:47;9.75;;;3.78;;
28653;SDS011;24320;56.980;24.336;2022-07-06T11:29:16;1.65;;;1.40;;
28653;SDS011;24320;56.980;24.336;2022-07-06T11:31:47;6.40;;;1.75;;
28653;SDS011;24320;56.980;24.336;2022-07-06T11:34:22;3.20;;;1.20;;
28653;SDS011;24320;56.980;24.336;2022-07-06T11:36:55;19.08;;;3.50;;
28653;SDS011;24320;56.980;24.336;2022-07-06T11:39:27;5.13;;;1.65;;
28653;SDS011;24320;56.980;24.336;2022-07-06T11:41:55;9.25;;;2.70;;
28653;SDS011;24320;56.980;24.336;2022-07-06T11:44:22;16.45;;;3.28;;
28653;SDS011;24320;56.980;24.336;2022-07-06T11:46:49;9.10;;;3.55;;
28653;SDS011;24320;56.980;24.336;2022-07-06T11:49:17;9.10;;;3.22;;
28653;SDS011;24320;56.980;24.336;2022-07-06T11:51:45;4.85;;;2.35;;
28653;SDS011;24320;56.980;24.336;2022-07-06T11:54:14;4.55;;;1.77;;
28653;SDS011;24320;56.980;24.336;2022-07-06T11:56:55;4.75;;;1.70;;
28653;SDS011;24320;56.980;24.336;2022-07-06T11:59:27;3.83;;;1.42;;
28653;SDS011;24320;56.980;24.336;2022-07-06T12:04:32;1.85;;;0.80;;
28653;SDS011;24320;56.980;24.336;2022-07-06T12:07:01;6.07;;;1.33;;
28653;SDS011;24320;56.980;24.336;2022-07-06T12:09:33;3.15;;;1.30;;
28653;SDS011;24320;56.980;24.336;2022-07-06T12:12:02;3.30;;;1.38;;
28653;SDS011;24320;56.980;24.336;2022-07-06T12:14:31;1.75;;;1.02;;
28653;SDS011;24320;56.980;24.336;2022-07-06T12:17:09;1.35;;;0.90;;
28653;SDS011;24320;56.980;24.336;2022-07-06T12:19:38;3.88;;;1.10;;
28653;SDS011;24320;56.980;24.336;2022-07-06T12:22:06;4.82;;;1.30;;
28653;SDS011;24320;56.980;24.336;2022-07-06T12:24:35;0.80;;;0.80;;
28653;SDS011;24320;56.980;24.336;2022-07-06T12:27:14;1.10;;;1.00;;
28653;SDS011;24320;56.980;24.336;2022-07-06T12:29:43;2.55;;;1.10;;
28653;SDS011;24320;56.980;24.336;2022-07-06T12:32:17;1.65;;;0.98;;
28653;SDS011;24320;56.980;24.336;2022-07-06T12:34:45;2.47;;;1.30;;
28653;SDS011;24320;56.980;24.336;2022-07-06T12:37:12;1.48;;;1.08;;
28653;SDS011;24320;56.980;24.336;2022-07-06T12:39:45;3.17;;;1.27;;
28653;SDS011;24320;56.980;24.336;2022-07-06T12:42:14;3.60;;;1.08;;
28653;SDS011;24320;56.980;24.336;2022-07-06T12:44:49;2.72;;;1.00;;
28653;SDS011;24320;56.980;24.336;2022-07-06T12:47:18;1.83;;;1.10;;
28653;SDS011;24320;56.980;24.336;2022-07-06T12:49:48;1.35;;;1.10;;
28653;SDS011;24320;56.980;24.336;2022-07-06T12:52:29;4.60;;;0.95;;
28653;SDS011;24320;56.980;24.336;2022-07-06T12:54:59;3.80;;;1.30;;
28653;SDS011;24320;56.980;24.336;2022-07-06T12:57:46;1.40;;;0.98;;
28653;SDS011;24320;56.980;24.336;2022-07-06T13:00:15;1.85;;;1.20;;
28653;SDS011;24320;56.980;24.336;2022-07-06T13:02:44;3.17;;;1.23;;
28653;SDS011;24320;56.980;24.336;2022-07-06T13:05:32;3.00;;;1.50;;
28653;SDS011;24320;56.980;24.336;2022-07-06T13:08:01;3.35;;;1.20;;
28653;SDS011;24320;56.980;24.336;2022-07-06T13:10:29;4.53;;;1.45;;
28653;SDS011;24320;56.980;24.336;2022-07-06T13:12:57;2.55;;;1.30;;
28653;SDS011;24320;56.980;24.336;2022-07-06T13:15:24;3.33;;;1.75;;
28653;SDS011;24320;56.980;24.336;2022-07-06T13:17:51;4.13;;;1.10;;
28653;SDS011;24320;56.980;24.336;2022-07-06T13:20:19;3.25;;;1.38;;
28653;SDS011;24320;56.980;24.336;2022-07-06T13:22:46;8.07;;;1.55;;
28653;SDS011;24320;56.980;24.336;2022-07-06T13:25:13;4.72;;;1.38;;
28653;SDS011;24320;56.980;24.336;2022-07-06T13:27:40;5.00;;;1.50;;
28653;SDS011;24320;56.980;24.336;2022-07-06T13:30:08;5.15;;;1.50;;
28653;SDS011;24320;56.980;24.336;2022-07-06T13:32:36;3.15;;;1.55;;
28653;SDS011;24320;56.980;24.336;2022-07-06T13:35:05;2.28;;;1.40;;
28653;SDS011;24320;56.980;24.336;2022-07-06T13:37:33;2.13;;;1.27;;
28653;SDS011;24320;56.980;24.336;2022-07-06T13:40:00;1.58;;;1.17;;
28653;SDS011;24320;56.980;24.336;2022-07-06T13:42:27;2.63;;;1.30;;
28653;SDS011;24320;56.980;24.336;2022-07-06T13:44:54;4.15;;;1.30;;
28653;SDS011;24320;56.980;24.336;2022-07-06T13:47:21;5.47;;;1.48;;
28653;SDS011;24320;56.980;24.336;2022-07-06T13:49:48;5.55;;;1.55;;
28653;SDS011;24320;56.980;24.336;2022-07-06T13:52:16;2.65;;;1.40;;
28653;SDS011;24320;56.980;24.336;2022-07-06T13:54:43;5.30;;;1.70;;
28653;SDS011;24320;56.980;24.336;2022-07-06T13:57:10;7.03;;;1.65;;
28653;SDS011;24320;56.980;24.336;2022-07-06T13:59:37;3.03;;;1.70;;
28653;SDS011;24320;56.980;24.336;2022-07-06T14:02:04;6.10;;;1.58;;
28653;SDS011;24320;56.980;24.336;2022-07-06T14:04:31;3.05;;;1.40;;
28653;SDS011;24320;56.980;24.336;2022-07-06T14:06:58;4.50;;;1.83;;
28653;SDS011;24320;56.980;24.336;2022-07-06T14:09:25;7.95;;;1.75;;
28653;SDS011;24320;56.980;24.336;2022-07-06T14:11:52;4.53;;;1.30;;
28653;SDS011;24320;56.980;24.336;2022-07-06T14:14:19;2.25;;;1.50;;
28653;SDS011;24320;56.980;24.336;2022-07-06T14:16:47;1.65;;;1.30;;
28653;SDS011;24320;56.980;24.336;2022-07-06T14:19:14;2.25;;;1.55;;
28653;SDS011;24320;56.980;24.336;2022-07-06T14:21:46;4.22;;;2.08;;
28653;SDS011;24320;56.980;24.336;2022-07-06T14:24:13;3.60;;;1.38;;
28653;SDS011;24320;56.980;24.336;2022-07-06T14:26:40;4.28;;;1.77;;
28653;SDS011;24320;56.980;24.336;2022-07-06T14:29:08;3.70;;;1.58;;
28653;SDS011;24320;56.980;24.336;2022-07-06T14:31:35;2.22;;;1.30;;
28653;SDS011;24320;56.980;24.336;2022-07-06T14:34:02;2.65;;;1.23;;
28653;SDS011;24320;56.980;24.336;2022-07-06T14:36:29;1.40;;;1.10;;
28653;SDS011;24320;56.980;24.336;2022-07-06T14:38:56;4.97;;;1.77;;
28653;SDS011;24320;56.980;24.336;2022-07-06T14:41:23;2.05;;;1.30;;
28653;SDS011;24320;56.980;24.336;2022-07-06T14:43:50;2.92;;;1.30;;
28653;SDS011;24320;56.980;24.336;2022-07-06T14:46:17;2.40;;;1.30;;
28653;SDS011;24320;56.980;24.336;2022-07-06T14:48:44;2.20;;;1.10;;
28653;SDS011;24320;56.980;24.336;2022-07-06T14:51:11;3.40;;;1.55;;
28653;SDS011;24320;56.980;24.336;2022-07-06T14:53:38;4.15;;;1.23;;
28653;SDS011;24320;56.980;24.336;2022-07-06T14:56:05;3.17;;;1.45;;
28653;SDS011;24320;56.980;24.336;2022-07-06T14:58:32;2.90;;;1.42;;
28653;SDS011;24320;56.980;24.336;2022-07-06T15:00:59;2.45;;;1.73;;